createdAt,value
2023-01-15T00:04:28.627Z,5.00
2023-01-15T00:09:29.371Z,4.60
2023-01-15T00:14:30.094Z,4.00
2023-01-15T00:19:30.803Z,3.80
2023-01-15T00:24:31.556Z,2.30
2023-01-15T00:29:32.256Z,3.10
2023-01-15T00:34:33.031Z,3.00
2023-01-15T00:39:33.773Z,2.80
2023-01-15T00:44:34.534Z,2.90
2023-01-15T00:49:36.337Z,3.00
2023-01-15T00:54:36.083Z,3.30
2023-01-15T00:59:36.815Z,3.70
2023-01-15T01:04:37.572Z,2.70
2023-01-15T01:09:38.340Z,2.70
2023-01-15T01:14:39.064Z,2.30
2023-01-15T01:19:39.799Z,3.20
2023-01-15T01:24:40.553Z,3.80
2023-01-15T01:29:41.329Z,5.40
2023-01-15T01:34:42.020Z,2.60
2023-01-15T01:39:42.769Z,2.70
2023-01-15T01:44:43.502Z,3.80
2023-01-15T01:49:44.272Z,2.30
2023-01-15T01:54:51.972Z,2.50
2023-01-15T01:59:45.664Z,2.40
2023-01-15T02:04:46.382Z,2.80
2023-01-15T02:09:47.117Z,2.00
2023-01-15T02:14:47.909Z,2.50
2023-01-15T02:19:48.627Z,1.40
2023-01-15T02:24:49.348Z,2.00
2023-01-15T02:29:50.081Z,2.10
2023-01-15T02:34:50.794Z,2.10
2023-01-15T02:39:51.527Z,1.90
2023-01-15T02:44:52.306Z,1.50
2023-01-15T02:49:52.973Z,2.10
2023-01-15T02:54:53.680Z,2.20
2023-01-15T02:59:54.398Z,2.10
2023-01-15T03:04:55.112Z,1.60
2023-01-15T03:09:55.831Z,1.40
2023-01-15T03:14:56.552Z,1.90
2023-01-15T03:19:57.298Z,1.90
2023-01-15T03:24:58.018Z,1.90
2023-01-15T03:29:58.726Z,3.00
2023-01-15T03:34:59.437Z,1.70
2023-01-15T03:40:00.171Z,1.90
2023-01-15T03:45:00.878Z,1.60
2023-01-15T03:50:01.622Z,1.40
2023-01-15T03:55:02.375Z,2.80
2023-01-15T04:00:03.088Z,1.30
2023-01-15T04:05:03.824Z,2.50
2023-01-15T04:10:04.539Z,2.80
2023-01-15T04:15:05.259Z,2.50
2023-01-15T04:20:05.977Z,2.50
2023-01-15T04:25:06.707Z,1.90
2023-01-15T04:30:07.544Z,3.70
2023-01-15T04:35:08.279Z,2.10
2023-01-15T04:40:08.998Z,2.90
2023-01-15T04:45:09.748Z,3.80
2023-01-15T04:50:10.442Z,2.10
2023-01-15T04:55:11.165Z,3.10
2023-01-15T05:00:11.880Z,2.10
2023-01-15T05:05:12.626Z,3.10
2023-01-15T05:10:13.337Z,2.70
2023-01-15T05:15:14.049Z,2.80
2023-01-15T05:20:14.784Z,2.80
2023-01-15T05:25:15.507Z,3.20
2023-01-15T05:30:16.272Z,3.00
2023-01-15T05:35:16.997Z,2.50
2023-01-15T05:40:17.720Z,3.30
2023-01-15T05:45:18.449Z,3.70
2023-01-15T05:50:19.188Z,2.60
2023-01-15T05:55:19.906Z,4.00
2023-01-15T06:00:20.636Z,3.50
2023-01-15T06:05:21.370Z,4.00
2023-01-15T06:10:22.084Z,3.10
2023-01-15T06:15:22.807Z,3.20
2023-01-15T06:20:23.616Z,3.70
2023-01-15T06:25:24.322Z,2.90
2023-01-15T06:30:25.040Z,3.20
2023-01-15T06:35:25.776Z,2.90
2023-01-15T06:40:26.455Z,4.20
2023-01-15T06:45:27.184Z,3.40
2023-01-15T06:50:27.933Z,3.60
2023-01-15T06:55:28.611Z,4.00
2023-01-15T07:00:29.345Z,2.90
2023-01-15T07:05:30.085Z,4.50
2023-01-15T07:10:30.767Z,2.80
2023-01-15T07:15:31.447Z,4.20
2023-01-15T07:20:32.153Z,3.60
2023-01-15T07:25:32.847Z,3.60
2023-01-15T07:30:33.544Z,2.60
2023-01-15T07:35:34.301Z,3.30
2023-01-15T07:40:35.014Z,4.30
2023-01-15T07:45:35.740Z,4.40
2023-01-15T07:50:36.372Z,3.90
2023-01-15T07:55:44.050Z,2.40
2023-01-15T08:00:37.756Z,4.10
2023-01-15T08:05:38.477Z,4.30
2023-01-15T08:10:39.119Z,3.60
2023-01-15T08:15:39.795Z,3.90
2023-01-15T08:20:40.511Z,4.30
2023-01-15T08:25:41.201Z,4.10
2023-01-15T08:30:46.899Z,3.70
2023-01-15T08:35:42.555Z,4.10
2023-01-15T08:40:43.286Z,4.20
2023-01-15T08:45:43.968Z,3.50
2023-01-15T08:50:44.675Z,5.10
2023-01-15T08:55:45.352Z,6.70
2023-01-15T09:00:46.041Z,7.00
2023-01-15T09:05:46.683Z,7.50
2023-01-15T09:10:47.388Z,4.40
2023-01-15T09:15:48.027Z,4.10
2023-01-15T09:20:48.743Z,3.30
2023-01-15T09:25:51.139Z,4.30
2023-01-15T09:30:50.034Z,4.50
2023-01-15T09:35:50.734Z,3.40
2023-01-15T09:40:51.440Z,4.70
2023-01-15T09:45:52.441Z,4.20
2023-01-15T09:50:53.259Z,3.60
2023-01-15T09:55:54.132Z,4.50
2023-01-15T10:00:54.763Z,4.10
2023-01-15T10:05:56.184Z,4.20
2023-01-15T10:10:56.363Z,3.70
2023-01-15T10:15:58.374Z,3.90
2023-01-15T10:20:57.667Z,3.30
2023-01-15T10:25:58.377Z,3.30
2023-01-15T10:30:59.095Z,3.30
2023-01-15T10:36:00.225Z,3.50
2023-01-15T10:41:01.542Z,2.60
2023-01-15T10:46:01.621Z,3.30
2023-01-15T10:51:01.802Z,2.90
2023-01-15T10:56:02.512Z,3.50
2023-01-15T11:01:03.237Z,3.20
2023-01-15T11:06:03.886Z,3.30
2023-01-15T11:11:05.024Z,3.60
2023-01-15T11:16:05.301Z,3.30
2023-01-15T11:21:06.094Z,3.70
2023-01-15T11:26:07.111Z,4.70
2023-01-15T11:31:07.421Z,3.60
2023-01-15T11:36:08.151Z,3.20
2023-01-15T11:41:08.839Z,5.30
2023-01-15T11:46:09.604Z,3.70
2023-01-15T11:51:10.291Z,4.10
2023-01-15T11:56:11.095Z,4.40
2023-01-15T12:01:11.850Z,4.50
2023-01-15T12:06:12.540Z,3.20
2023-01-15T12:11:25.890Z,4.10
2023-01-15T12:16:14.922Z,3.40
2023-01-15T12:21:14.751Z,5.40
2023-01-15T12:26:15.430Z,5.40
2023-01-15T12:31:16.941Z,4.10
2023-01-15T12:36:16.650Z,7.10
2023-01-15T12:41:17.346Z,7.20
2023-01-15T12:46:18.144Z,4.90
2023-01-15T12:51:18.827Z,4.60
2023-01-15T12:56:19.522Z,3.80
2023-01-15T13:01:20.281Z,4.10
2023-01-15T13:06:21.049Z,5.10
2023-01-15T13:11:21.791Z,5.30
2023-01-15T13:16:22.729Z,6.20
2023-01-15T13:21:23.081Z,5.10
2023-01-15T13:26:23.981Z,4.70
2023-01-15T13:31:24.913Z,5.30
2023-01-15T13:36:25.162Z,5.90
2023-01-15T13:41:25.834Z,6.20
2023-01-15T13:46:26.648Z,5.90
2023-01-15T13:51:27.287Z,5.20
2023-01-15T13:56:28.040Z,6.20
2023-01-15T14:01:28.902Z,4.60
2023-01-15T14:06:29.706Z,6.10
2023-01-15T14:11:30.484Z,4.90
2023-01-15T14:16:31.152Z,4.60
2023-01-15T14:21:31.845Z,6.70
2023-01-15T14:26:32.528Z,4.60
2023-01-15T14:31:33.303Z,4.90
2023-01-15T14:36:33.959Z,5.10
2023-01-15T14:41:35.459Z,6.00
2023-01-15T14:46:35.113Z,4.60
2023-01-15T14:51:35.792Z,4.90
2023-01-15T14:56:36.549Z,5.30
2023-01-15T15:01:37.419Z,6.70
2023-01-15T15:06:38.142Z,5.60
2023-01-15T15:11:38.793Z,5.50
2023-01-15T15:16:39.491Z,5.10
2023-01-15T15:27:35.563Z,3.50
2023-01-15T15:32:36.267Z,6.60
2023-01-15T15:37:36.914Z,5.40
2023-01-15T15:42:44.896Z,6.00
2023-01-15T15:47:38.509Z,5.50
2023-01-15T15:52:40.065Z,5.80
2023-01-15T15:57:39.814Z,4.30
2023-01-15T16:02:40.676Z,5.70
2023-01-15T16:07:41.437Z,4.30
2023-01-15T16:12:42.189Z,5.20
2023-01-15T16:17:42.898Z,4.30
2023-01-15T16:22:43.637Z,6.10
2023-01-15T16:27:44.349Z,5.60
2023-01-15T16:32:45.082Z,4.20
2023-01-15T16:37:45.827Z,4.60
2023-01-15T16:42:46.535Z,4.30
2023-01-15T16:47:47.350Z,4.70
2023-01-15T16:52:48.077Z,6.10
2023-01-15T16:57:48.795Z,5.20
2023-01-15T17:02:49.522Z,4.90
2023-01-15T17:07:50.267Z,5.60
2023-01-15T17:12:50.985Z,4.60
2023-01-15T17:17:51.798Z,6.10
2023-01-15T17:22:52.533Z,5.00
2023-01-15T17:27:53.263Z,6.00
2023-01-15T17:32:53.997Z,4.20
2023-01-15T17:37:54.736Z,7.10
2023-01-15T17:42:55.451Z,6.00
2023-01-15T17:47:56.177Z,4.10
2023-01-15T17:52:56.946Z,6.50
2023-01-15T17:57:57.677Z,5.50
2023-01-15T18:02:58.455Z,6.40
2023-01-15T18:07:59.122Z,5.60
2023-01-15T18:12:59.877Z,7.30
2023-01-15T18:18:00.603Z,6.80
2023-01-15T18:23:01.346Z,6.20
2023-01-15T18:28:02.044Z,6.20
2023-01-15T18:33:03.046Z,5.50
2023-01-15T18:38:03.234Z,6.70
2023-01-15T18:43:03.962Z,6.30
2023-01-15T18:48:04.690Z,6.60
2023-01-15T18:53:05.451Z,7.60
2023-01-15T18:58:06.194Z,6.40
2023-01-15T19:03:06.901Z,6.60
2023-01-15T19:08:07.626Z,5.90
2023-01-15T19:13:08.368Z,8.90
2023-01-15T19:18:09.155Z,6.10
2023-01-15T19:23:09.866Z,6.60
2023-01-15T19:28:10.599Z,5.80
2023-01-15T19:33:11.327Z,7.20
2023-01-15T19:38:12.054Z,7.30
2023-01-15T19:43:12.816Z,6.60
2023-01-15T19:48:13.543Z,6.90
2023-01-15T19:53:14.361Z,7.60
2023-01-15T19:58:15.184Z,6.40
2023-01-15T20:03:15.987Z,6.90
2023-01-15T20:08:16.676Z,5.20
2023-01-15T20:13:17.438Z,7.00
2023-01-15T20:18:18.164Z,6.20
2023-01-15T20:23:18.900Z,9.50
2023-01-15T20:28:19.702Z,9.50
2023-01-15T20:33:20.448Z,5.20
2023-01-15T20:38:21.194Z,6.50
2023-01-15T20:43:21.926Z,5.70
2023-01-15T20:48:22.705Z,5.40
2023-01-15T20:53:23.464Z,5.80
2023-01-15T20:58:24.281Z,6.40
2023-01-15T21:03:25.000Z,7.70
2023-01-15T21:08:25.729Z,8.10
2023-01-15T21:13:26.486Z,6.50
2023-01-15T21:18:27.238Z,6.60
2023-01-15T21:23:27.961Z,7.20
2023-01-15T21:28:28.730Z,6.70
2023-01-15T21:33:29.459Z,5.10
2023-01-15T21:38:30.208Z,5.30
2023-01-15T21:43:30.946Z,8.30
2023-01-15T21:48:31.765Z,5.70
2023-01-15T21:53:32.502Z,6.60
2023-01-15T21:58:33.207Z,7.60
2023-01-15T22:03:34.011Z,5.30
2023-01-15T22:08:34.774Z,5.70
2023-01-15T22:13:35.521Z,6.00
2023-01-15T22:18:36.239Z,7.30
2023-01-15T22:23:36.980Z,5.40
2023-01-15T22:28:37.781Z,4.30
2023-01-15T22:33:38.612Z,6.00
2023-01-15T22:38:39.437Z,5.80
2023-01-15T22:43:40.175Z,7.00
2023-01-15T22:48:40.898Z,5.60
2023-01-15T22:53:41.646Z,5.40
2023-01-15T22:58:42.590Z,4.50
2023-01-15T23:03:42.944Z,5.60
2023-01-15T23:08:43.279Z,5.10
2023-01-15T23:13:44.034Z,6.60
2023-01-15T23:18:51.811Z,6.70
2023-01-15T23:23:45.462Z,5.90
2023-01-15T23:28:46.181Z,5.20
2023-01-15T23:33:46.898Z,6.20
2023-01-15T23:38:47.644Z,7.60
2023-01-15T23:43:48.396Z,5.50
2023-01-15T23:48:49.126Z,6.50
2023-01-15T23:53:49.855Z,5.60
2023-01-15T23:58:50.576Z,5.70
